createdAt,value
2018-04-11T00:01:07.896Z,5.50
2018-04-11T00:03:36.168Z,5.50
2018-04-11T00:06:04.410Z,5.50
2018-04-11T00:08:31.898Z,5.50
2018-04-11T00:11:00.199Z,5.60
2018-04-11T00:13:27.683Z,5.60
2018-04-11T00:15:55.972Z,5.60
2018-04-11T00:18:23.447Z,5.50
2018-04-11T00:20:51.798Z,5.60
2018-04-11T00:23:19.364Z,5.50
2018-04-11T00:25:46.887Z,5.50
2018-04-11T00:28:14.390Z,5.50
2018-04-11T00:30:41.902Z,5.40
2018-04-11T00:33:09.380Z,5.40
2018-04-11T00:35:36.880Z,5.30
2018-04-11T00:38:05.159Z,5.30
2018-04-11T00:40:33.426Z,5.30
2018-04-11T00:43:01.720Z,5.30
2018-04-11T00:45:29.252Z,5.20
2018-04-11T00:47:57.527Z,5.30
2018-04-11T00:50:25.782Z,5.30
2018-04-11T00:53:05.095Z,5.30
2018-04-11T00:55:32.583Z,5.30
2018-04-11T00:58:00.102Z,5.30
2018-04-11T01:00:27.585Z,5.30
2018-04-11T01:02:55.083Z,5.30
2018-04-11T01:05:22.587Z,5.30
2018-04-11T01:07:50.066Z,5.30
2018-04-11T01:10:17.586Z,5.20
2018-04-11T01:12:45.075Z,5.10
2018-04-11T01:15:12.611Z,5.00
2018-04-11T01:17:40.120Z,5.00
2018-04-11T01:20:07.631Z,5.00
2018-04-11T01:22:35.145Z,5.00
2018-04-11T01:25:03.430Z,5.10
2018-04-11T01:27:30.951Z,5.10
2018-04-11T01:29:58.468Z,5.20
2018-04-11T01:32:25.998Z,5.20
2018-04-11T01:34:53.483Z,5.10
2018-04-11T01:37:20.995Z,5.10
2018-04-11T01:39:48.549Z,5.10
2018-04-11T01:42:16.087Z,5.00
2018-04-11T01:44:43.642Z,5.10
2018-04-11T01:47:11.127Z,5.00
2018-04-11T01:49:39.382Z,5.10
2018-04-11T01:52:06.933Z,5.00
2018-04-11T01:54:34.437Z,5.10
2018-04-11T01:57:01.943Z,5.10
2018-04-11T01:59:30.934Z,5.00
2018-04-11T02:01:58.464Z,5.00
2018-04-11T02:04:26.041Z,5.10
2018-04-11T02:06:53.547Z,5.00
2018-04-11T02:09:21.833Z,5.00
2018-04-11T02:11:50.124Z,5.00
2018-04-11T02:14:17.654Z,5.00
2018-04-11T02:16:45.924Z,4.90
2018-04-11T02:19:14.353Z,4.90
2018-04-11T02:21:41.838Z,4.90
2018-04-11T02:24:09.324Z,4.90
2018-04-11T02:26:37.603Z,5.00
2018-04-11T02:29:06.039Z,4.90
2018-04-11T02:31:33.551Z,4.90
2018-04-11T02:34:01.074Z,4.90
2018-04-11T02:36:28.588Z,5.00
2018-04-11T02:38:56.099Z,5.00
2018-04-11T02:41:23.608Z,5.00
2018-04-11T02:43:51.098Z,4.90
2018-04-11T02:46:18.589Z,4.70
2018-04-11T02:48:46.847Z,4.80
2018-04-11T02:51:14.339Z,4.80
2018-04-11T02:53:41.955Z,4.90
2018-04-11T02:56:09.438Z,4.90
2018-04-11T02:58:37.710Z,4.90
2018-04-11T03:01:05.962Z,4.80
2018-04-11T03:03:33.447Z,4.80
2018-04-11T03:06:01.753Z,4.90
2018-04-11T03:08:29.278Z,4.80
2018-04-11T03:10:57.594Z,4.80
2018-04-11T03:13:25.102Z,4.70
2018-04-11T03:15:53.367Z,4.70
2018-04-11T03:18:20.860Z,4.70
2018-04-11T03:20:48.385Z,4.80
2018-04-11T03:23:15.895Z,4.80
2018-04-11T03:25:43.375Z,4.90
2018-04-11T03:28:10.889Z,4.90
2018-04-11T03:30:38.475Z,4.80
2018-04-11T03:33:05.982Z,4.70
2018-04-11T03:35:34.227Z,4.80
2018-04-11T03:38:02.489Z,4.70
2018-04-11T03:40:30.762Z,4.70
2018-04-11T03:42:58.271Z,4.70
2018-04-11T03:45:26.584Z,4.80
2018-04-11T03:47:54.076Z,4.70
2018-04-11T03:50:21.604Z,4.70
2018-04-11T03:52:49.087Z,4.70
2018-04-11T03:55:16.594Z,4.60
2018-04-11T03:57:44.087Z,4.50
2018-04-11T04:00:11.588Z,4.60
2018-04-11T04:02:39.846Z,4.60
2018-04-11T04:05:07.352Z,4.60
2018-04-11T04:07:34.855Z,4.70
2018-04-11T04:10:02.385Z,4.70
2018-04-11T04:12:29.923Z,4.80
2018-04-11T04:15:09.359Z,4.80
2018-04-11T04:17:52.206Z,4.80
2018-04-11T04:20:31.530Z,4.70
2018-04-11T04:22:59.044Z,4.60
2018-04-11T04:25:27.323Z,4.60
2018-04-11T04:27:55.590Z,4.80
2018-04-11T04:30:23.918Z,4.80
2018-04-11T04:32:52.116Z,4.80
2018-04-11T04:35:19.665Z,4.80
2018-04-11T04:37:47.154Z,4.70
2018-04-11T04:40:15.401Z,4.70
2018-04-11T04:42:42.920Z,4.70
2018-04-11T04:45:16.199Z,4.70
2018-04-11T04:47:43.761Z,4.70
2018-04-11T04:50:11.242Z,4.80
2018-04-11T04:52:38.758Z,4.70
2018-04-11T04:55:07.025Z,4.70
2018-04-11T04:57:35.277Z,4.70
2018-04-11T05:00:02.832Z,4.60
2018-04-11T05:02:30.372Z,4.60
2018-04-11T05:04:57.856Z,4.60
2018-04-11T05:07:25.342Z,4.70
2018-04-11T05:09:53.629Z,4.70
2018-04-11T05:12:21.131Z,4.70
2018-04-11T05:14:48.623Z,4.80
2018-04-11T05:17:17.036Z,4.60
2018-04-11T05:19:44.556Z,4.60
2018-04-11T05:22:12.032Z,4.60
2018-04-11T05:24:40.310Z,4.70
2018-04-11T05:27:09.875Z,4.60
2018-04-11T05:29:37.363Z,4.60
2018-04-11T05:32:05.615Z,4.80
2018-04-11T05:34:33.902Z,4.70
2018-04-11T05:37:02.200Z,4.70
2018-04-11T05:39:29.684Z,4.70
2018-04-11T05:41:57.211Z,4.90
2018-04-11T05:44:24.711Z,4.80
2018-04-11T05:46:52.242Z,4.80
2018-04-11T05:49:19.818Z,4.90
2018-04-11T05:51:47.441Z,4.80
2018-04-11T05:54:15.692Z,4.80
2018-04-11T05:56:43.261Z,4.80
2018-04-11T05:59:11.554Z,4.90
2018-04-11T06:01:39.799Z,4.90
2018-04-11T06:04:07.367Z,4.90
2018-04-11T06:06:35.801Z,5.00
2018-04-11T06:09:03.438Z,5.00
2018-04-11T06:11:31.095Z,5.10
2018-04-11T06:13:58.572Z,5.30
2018-04-11T06:16:26.105Z,5.40
2018-04-11T06:18:53.703Z,5.40
2018-04-11T06:21:21.403Z,5.40
2018-04-11T06:23:48.911Z,5.50
2018-04-11T06:26:16.447Z,5.70
2018-04-11T06:28:43.967Z,5.70
2018-04-11T06:31:11.442Z,5.80
2018-04-11T06:33:38.934Z,5.90
2018-04-11T06:36:07.214Z,6.00
2018-04-11T06:38:34.767Z,6.00
2018-04-11T06:41:02.261Z,6.10
2018-04-11T06:43:29.846Z,6.10
2018-04-11T06:45:58.139Z,6.50
2018-04-11T06:48:26.403Z,6.60
2018-04-11T06:50:54.692Z,6.80
2018-04-11T06:53:22.232Z,6.80
2018-04-11T06:55:50.482Z,6.80
2018-04-11T06:58:18.051Z,6.80
2018-04-11T07:00:45.581Z,6.90
2018-04-11T07:03:13.095Z,6.90
2018-04-11T07:05:40.640Z,7.00
2018-04-11T07:08:08.160Z,7.20
2018-04-11T07:10:35.835Z,7.40
2018-04-11T07:13:03.335Z,7.50
2018-04-11T07:15:30.844Z,7.60
2018-04-11T07:17:58.358Z,7.80
2018-04-11T07:20:25.846Z,7.90
2018-04-11T07:22:53.342Z,8.00
2018-04-11T07:25:20.852Z,8.10
2018-04-11T07:27:48.357Z,8.30
2018-04-11T07:30:16.643Z,8.70
2018-04-11T07:32:44.908Z,8.80
2018-04-11T07:35:12.407Z,8.80
2018-04-11T07:37:39.924Z,8.90
2018-04-11T07:40:07.534Z,8.90
2018-04-11T07:42:35.766Z,9.40
2018-04-11T07:45:04.042Z,9.60
2018-04-11T07:47:32.378Z,9.70
2018-04-11T07:49:59.863Z,9.70
2018-04-11T07:52:27.388Z,9.90
2018-04-11T07:54:54.915Z,10.00
2018-04-11T07:57:22.464Z,10.20
2018-04-11T07:59:49.962Z,10.40
2018-04-11T08:02:18.246Z,10.70
2018-04-11T08:04:45.755Z,10.60
2018-04-11T08:07:13.272Z,10.80
2018-04-11T08:09:40.840Z,10.90
2018-04-11T08:12:09.140Z,11.20
2018-04-11T08:14:37.419Z,11.40
2018-04-11T08:17:05.045Z,11.30
2018-04-11T08:19:32.555Z,11.40
2018-04-11T08:22:00.063Z,11.60
2018-04-11T08:24:27.550Z,11.60
2018-04-11T08:26:55.823Z,11.70
2018-04-11T08:29:24.079Z,11.80
2018-04-11T08:31:51.591Z,11.80
2018-04-11T08:34:19.093Z,11.90
2018-04-11T08:36:48.095Z,12.10
2018-04-11T08:39:16.396Z,12.20
2018-04-11T08:41:43.902Z,12.10
2018-04-11T08:44:11.455Z,12.30
2018-04-11T08:46:38.943Z,12.40
2018-04-11T08:49:07.228Z,12.40
2018-04-11T08:51:35.486Z,12.50
2018-04-11T08:54:03.751Z,12.40
2018-04-11T08:56:31.371Z,12.40
2018-04-11T08:58:58.939Z,12.40
2018-04-11T09:01:26.441Z,12.50
2018-04-11T09:03:53.930Z,12.50
2018-04-11T09:06:21.458Z,12.60
2018-04-11T09:08:48.946Z,12.70
2018-04-11T09:11:16.455Z,12.70
2018-04-11T09:13:43.961Z,12.80
2018-04-11T09:16:11.486Z,12.90
2018-04-11T09:18:39.002Z,12.90
2018-04-11T09:21:06.493Z,13.00
2018-04-11T09:23:34.215Z,13.00
2018-04-11T09:26:01.715Z,13.10
2018-04-11T09:28:29.227Z,13.00
2018-04-11T09:30:57.577Z,13.20
2018-04-11T09:33:25.110Z,13.10
2018-04-11T09:35:52.634Z,13.30
2018-04-11T09:38:20.134Z,13.40
2018-04-11T09:40:47.694Z,13.60
2018-04-11T09:43:16.283Z,13.70
2018-04-11T09:45:44.529Z,13.80
2018-04-11T09:48:12.068Z,13.70
2018-04-11T09:50:39.581Z,13.90
2018-04-11T09:53:07.858Z,14.20
2018-04-11T09:55:36.206Z,14.20
2018-04-11T09:58:04.511Z,14.40
2018-04-11T10:00:32.760Z,14.50
2018-04-11T10:03:06.027Z,14.40
2018-04-11T10:05:33.586Z,14.50
2018-04-11T10:08:01.924Z,14.70
2018-04-11T10:10:29.432Z,14.60
2018-04-11T10:12:57.032Z,14.80
2018-04-11T10:15:24.609Z,14.80
2018-04-11T10:17:52.166Z,14.90
2018-04-11T10:20:19.647Z,15.10
2018-04-11T10:22:47.209Z,15.10
2018-04-11T10:25:14.736Z,15.20
2018-04-11T10:27:42.231Z,15.30
2018-04-11T10:30:09.750Z,15.40
2018-04-11T10:32:37.247Z,15.50
2018-04-11T10:35:04.799Z,15.50
2018-04-11T10:37:32.403Z,15.70
2018-04-11T10:40:00.752Z,15.90
2018-04-11T10:42:28.240Z,15.90
2018-04-11T10:44:56.498Z,15.90
2018-04-11T10:47:24.786Z,16.00
2018-04-11T10:49:53.038Z,16.10
2018-04-11T10:52:20.552Z,16.00
2018-04-11T10:54:48.044Z,16.10
2018-04-11T10:57:15.544Z,16.10
2018-04-11T10:59:43.886Z,16.00
2018-04-11T11:02:11.395Z,16.00
2018-04-11T11:04:38.909Z,16.00
2018-04-11T11:07:06.495Z,16.20
2018-04-11T11:09:34.809Z,16.40
2018-04-11T11:12:02.304Z,16.40
2018-04-11T11:14:29.823Z,16.60
2018-04-11T11:16:57.329Z,16.80
2018-04-11T11:19:24.894Z,16.80
2018-04-11T11:21:52.414Z,16.90
2018-04-11T11:24:19.915Z,16.80
2018-04-11T11:26:48.221Z,16.80
2018-04-11T11:29:15.714Z,16.80
2018-04-11T11:31:43.227Z,16.80
2018-04-11T11:34:10.717Z,16.90
2018-04-11T11:36:38.211Z,16.90
2018-04-11T11:39:06.511Z,16.90
2018-04-11T11:41:34.050Z,16.80
2018-04-11T11:44:02.368Z,17.00
2018-04-11T11:46:29.850Z,16.90
2018-04-11T11:48:57.444Z,17.10
2018-04-11T11:51:25.702Z,17.30
2018-04-11T11:53:53.964Z,17.50
2018-04-11T11:56:21.492Z,17.40
2018-04-11T11:58:48.974Z,17.50
2018-04-11T12:01:16.474Z,17.40
2018-04-11T12:03:44.727Z,17.60
2018-04-11T12:06:12.342Z,17.60
2018-04-11T12:08:39.842Z,17.80
2018-04-11T12:11:07.359Z,17.70
2018-04-11T12:13:34.857Z,17.80
2018-04-11T12:16:02.357Z,17.80
2018-04-11T12:18:29.960Z,17.80
2018-04-11T12:20:57.437Z,17.90
2018-04-11T12:23:24.944Z,18.00
2018-04-11T12:25:52.425Z,18.10
2018-04-11T12:28:19.954Z,18.30
2018-04-11T12:30:47.441Z,18.60
2018-04-11T12:33:15.005Z,18.70
2018-04-11T12:35:42.511Z,18.90
2018-04-11T12:38:10.007Z,19.00
2018-04-11T12:40:37.524Z,18.90
2018-04-11T12:43:05.103Z,18.80
2018-04-11T12:45:32.619Z,19.10
2018-04-11T12:48:00.880Z,19.50
2018-04-11T12:50:29.128Z,19.70
2018-04-11T12:52:56.683Z,19.70
2018-04-11T12:55:24.165Z,19.90
2018-04-11T12:57:51.650Z,20.10
2018-04-11T13:00:19.986Z,19.70
2018-04-11T13:02:47.506Z,19.70
2018-04-11T13:05:15.025Z,19.50
2018-04-11T13:07:42.537Z,19.70
2018-04-11T13:10:10.071Z,19.80
2018-04-11T13:12:37.577Z,20.00
2018-04-11T13:15:05.118Z,20.20
2018-04-11T13:17:32.659Z,19.90
2018-04-11T13:20:00.152Z,19.70
2018-04-11T13:22:27.667Z,19.90
2018-04-11T13:24:55.164Z,20.00
2018-04-11T13:27:22.736Z,20.30
2018-04-11T13:29:50.266Z,20.50
2018-04-11T13:32:17.836Z,20.80
2018-04-11T13:34:45.330Z,20.90
2018-04-11T13:37:13.649Z,20.70
2018-04-11T13:39:41.132Z,20.70
2018-04-11T13:42:09.486Z,21.10
2018-04-11T13:44:37.017Z,21.00
2018-04-11T13:47:04.572Z,21.10
2018-04-11T13:49:32.036Z,21.10
2018-04-11T13:51:59.574Z,21.10
2018-04-11T13:54:27.829Z,21.30
2018-04-11T13:56:55.313Z,21.30
2018-04-11T13:59:23.629Z,21.40
2018-04-11T14:01:51.153Z,21.30
2018-04-11T14:04:19.423Z,20.70
2018-04-11T14:06:47.007Z,20.70
2018-04-11T14:09:14.508Z,20.40
2018-04-11T14:11:42.059Z,20.40
2018-04-11T14:14:09.526Z,20.40
2018-04-11T14:16:38.550Z,20.60
2018-04-11T14:19:08.117Z,20.50
2018-04-11T14:21:35.661Z,20.50
2018-04-11T14:24:03.167Z,20.30
2018-04-11T14:26:30.713Z,20.10
2018-04-11T14:28:58.994Z,20.20
2018-04-11T14:31:27.293Z,20.40
2018-04-11T14:33:54.778Z,20.40
2018-04-11T14:36:22.293Z,20.80
2018-04-11T14:38:50.584Z,21.40
2018-04-11T14:41:18.084Z,21.30
2018-04-11T14:43:45.613Z,21.60
2018-04-11T14:46:13.110Z,21.50
2018-04-11T14:48:40.620Z,21.70
2018-04-11T14:51:08.134Z,22.00
2018-04-11T14:53:35.649Z,22.40
2018-04-11T14:56:03.144Z,22.70
2018-04-11T14:58:30.648Z,22.90
2018-04-11T15:00:58.165Z,23.10
2018-04-11T15:03:26.534Z,23.40
2018-04-11T15:05:54.041Z,23.20
2018-04-11T15:08:21.565Z,22.80
2018-04-11T15:10:49.048Z,22.90
2018-04-11T15:13:16.636Z,23.30
2018-04-11T15:15:44.146Z,23.50
2018-04-11T15:18:12.403Z,23.80
2018-04-11T15:20:39.946Z,23.80
2018-04-11T15:23:07.430Z,23.70
2018-04-11T15:25:34.943Z,23.90
2018-04-11T15:28:02.459Z,23.80
2018-04-11T15:30:30.734Z,23.10
2018-04-11T15:32:59.019Z,22.80
2018-04-11T15:35:27.296Z,22.50
2018-04-11T15:37:54.824Z,22.40
2018-04-11T15:40:22.409Z,22.10
2018-04-11T15:42:49.914Z,22.00
2018-04-11T15:45:17.414Z,21.80
2018-04-11T15:47:45.748Z,21.50
2018-04-11T15:50:13.327Z,21.40
2018-04-11T15:52:40.862Z,20.90
2018-04-11T15:55:08.364Z,20.60
2018-04-11T15:57:36.700Z,20.00
2018-04-11T16:00:04.214Z,20.00
2018-04-11T16:02:31.709Z,19.90
2018-04-11T16:04:59.247Z,19.90
2018-04-11T16:07:26.743Z,19.90
2018-04-11T16:09:54.272Z,19.90
2018-04-11T16:12:21.811Z,19.90
2018-04-11T16:14:49.299Z,19.90
2018-04-11T16:17:16.859Z,19.70
2018-04-11T16:19:44.395Z,19.60
2018-04-11T16:22:12.033Z,19.60
2018-04-11T16:24:40.322Z,19.50
2018-04-11T16:27:07.900Z,19.40
2018-04-11T16:29:35.406Z,19.50
2018-04-11T16:32:03.026Z,19.30
2018-04-11T16:34:30.593Z,19.10
2018-04-11T16:36:58.079Z,19.20
2018-04-11T16:39:25.687Z,19.10
2018-04-11T16:41:53.173Z,19.00
2018-04-11T16:44:20.699Z,18.90
2018-04-11T16:46:48.279Z,18.70
2018-04-11T16:49:15.778Z,18.80
2018-04-11T16:51:44.107Z,18.50
2018-04-11T16:54:11.622Z,18.50
2018-04-11T16:56:39.890Z,18.30
2018-04-11T16:59:08.250Z,18.30
2018-04-11T17:01:35.737Z,18.20
2018-04-11T17:04:06.011Z,18.00
2018-04-11T17:06:33.577Z,18.00
2018-04-11T17:09:01.137Z,18.00
2018-04-11T17:11:28.715Z,18.00
2018-04-11T17:13:56.295Z,17.80
2018-04-11T17:16:24.549Z,17.50
2018-04-11T17:18:52.052Z,17.40
2018-04-11T17:21:31.460Z,17.30
2018-04-11T17:24:11.680Z,16.90
2018-04-11T17:29:53.693Z,16.70
2018-04-11T17:32:21.230Z,16.60
2018-04-11T17:34:48.710Z,16.40
2018-04-11T17:37:16.219Z,16.30
2018-04-11T17:39:43.707Z,16.20
2018-04-11T17:42:11.235Z,16.10
2018-04-11T17:44:38.741Z,15.90
2018-04-11T17:47:06.425Z,15.60
2018-04-11T17:49:34.762Z,15.30
2018-04-11T17:52:02.274Z,15.30
2018-04-11T17:54:30.545Z,15.10
2018-04-11T17:56:58.126Z,15.10
2018-04-11T17:59:25.622Z,15.00
2018-04-11T18:01:53.119Z,14.90
2018-04-11T18:04:20.644Z,14.70
2018-04-11T18:06:48.178Z,14.60
2018-04-11T18:09:15.707Z,14.60
2018-04-11T18:11:43.216Z,14.50
2018-04-11T18:14:10.775Z,14.30
2018-04-11T18:16:38.257Z,14.30
2018-04-11T18:19:05.814Z,14.20
2018-04-11T18:21:34.094Z,14.00
2018-04-11T18:24:01.688Z,14.00
2018-04-11T18:26:29.182Z,13.90
2018-04-11T18:28:56.700Z,13.90
2018-04-11T18:31:24.191Z,13.80
2018-04-11T18:33:52.501Z,13.90
2018-04-11T18:36:20.743Z,13.70
2018-04-11T18:38:48.357Z,13.70
2018-04-11T18:41:15.936Z,13.70
2018-04-11T18:43:43.427Z,13.60
2018-04-11T18:46:11.002Z,13.60
2018-04-11T18:48:38.496Z,13.50
2018-04-11T18:51:06.042Z,13.50
2018-04-11T18:53:33.685Z,13.50
2018-04-11T18:56:02.001Z,13.50
2018-04-11T18:58:29.538Z,13.50
2018-04-11T19:00:57.788Z,13.60
2018-04-11T19:03:25.385Z,13.50
2018-04-11T19:05:52.893Z,13.50
2018-04-11T19:08:20.414Z,13.60
2018-04-11T19:10:47.968Z,13.50
2018-04-11T19:13:15.745Z,13.50
2018-04-11T19:15:43.171Z,13.70
2018-04-11T19:18:10.785Z,13.80
2018-04-11T19:20:38.290Z,14.10
2018-04-11T19:23:05.802Z,14.20
2018-04-11T19:25:33.337Z,14.50
2018-04-11T19:28:01.181Z,14.60
2018-04-11T19:30:28.712Z,14.80
2018-04-11T19:32:56.311Z,15.00
2018-04-11T19:35:23.878Z,15.10
2018-04-11T19:37:51.376Z,15.30
2018-04-11T19:40:22.153Z,15.40
2018-04-11T19:42:49.648Z,15.50
2018-04-11T19:45:17.265Z,15.50
2018-04-11T19:47:44.810Z,15.80
2018-04-11T19:50:12.355Z,15.80
2018-04-11T19:52:40.642Z,15.80
2018-04-11T19:55:08.930Z,15.90
2018-04-11T19:57:36.425Z,15.90
2018-04-11T20:00:04.051Z,16.00
2018-04-11T20:02:31.668Z,16.00
2018-04-11T20:04:59.146Z,16.10
2018-04-11T20:07:27.430Z,16.20
2018-04-11T20:09:55.681Z,16.30
2018-04-11T20:12:23.245Z,16.20
2018-04-11T20:14:51.493Z,16.30
2018-04-11T20:17:19.119Z,16.30
2018-04-11T20:19:46.646Z,16.30
2018-04-11T20:22:14.930Z,16.30
2018-04-11T20:24:42.642Z,16.40
2018-04-11T20:27:10.166Z,16.40
2018-04-11T20:29:37.682Z,16.40
2018-04-11T20:32:05.213Z,16.40
2018-04-11T20:34:32.718Z,16.40
2018-04-11T20:37:00.997Z,16.30
2018-04-11T20:39:28.509Z,16.30
2018-04-11T20:41:56.158Z,16.30
2018-04-11T20:44:23.735Z,16.40
2018-04-11T20:46:51.311Z,16.40
2018-04-11T20:49:18.810Z,16.40
2018-04-11T20:51:46.320Z,16.30
2018-04-11T20:54:13.807Z,16.40
2018-04-11T20:56:41.322Z,16.50
2018-04-11T20:59:08.824Z,16.40
2018-04-11T21:01:36.366Z,16.40
2018-04-11T21:04:04.650Z,16.50
2018-04-11T21:06:32.958Z,16.50
2018-04-11T21:09:00.453Z,16.50
2018-04-11T21:11:27.940Z,16.40
2018-04-11T21:13:56.206Z,16.30
2018-04-11T21:16:23.690Z,16.30
2018-04-11T21:18:51.297Z,16.40
2018-04-11T21:21:18.812Z,16.40
2018-04-11T21:23:46.357Z,16.40
2018-04-11T21:26:13.868Z,16.40
2018-04-11T21:28:41.374Z,16.40
2018-04-11T21:31:08.886Z,16.30
2018-04-11T21:33:36.418Z,16.30
2018-04-11T21:36:04.016Z,16.20
2018-04-11T21:38:31.618Z,16.20
2018-04-11T21:40:59.965Z,16.20
2018-04-11T21:43:28.234Z,16.10
2018-04-11T21:45:55.734Z,16.10
2018-04-11T21:48:23.286Z,16.10
2018-04-11T21:50:50.797Z,16.00
2018-04-11T21:53:18.306Z,15.90
2018-04-11T21:55:45.900Z,15.90
2018-04-11T21:58:13.394Z,15.80
2018-04-11T22:00:41.707Z,15.80
2018-04-11T22:03:09.215Z,15.80
2018-04-11T22:05:36.736Z,15.80
2018-04-11T22:08:04.294Z,15.80
2018-04-11T22:10:31.820Z,15.70
2018-04-11T22:12:59.335Z,15.70
2018-04-11T22:15:27.045Z,15.70
2018-04-11T22:17:54.530Z,15.60
2018-04-11T22:20:22.852Z,15.50
2018-04-11T22:22:51.127Z,15.50
2018-04-11T22:25:19.422Z,15.40
2018-04-11T22:27:46.931Z,15.40
2018-04-11T22:30:14.452Z,15.40
2018-04-11T22:32:41.929Z,15.40
2018-04-11T22:35:09.452Z,15.30
2018-04-11T22:37:37.105Z,15.30
2018-04-11T22:40:05.435Z,15.10
2018-04-11T22:42:32.946Z,15.10
2018-04-11T22:45:00.527Z,15.00
2018-04-11T22:47:28.148Z,15.00
2018-04-11T22:49:55.698Z,14.80
2018-04-11T22:52:24.008Z,14.70
2018-04-11T22:54:51.540Z,14.60
2018-04-11T22:57:19.911Z,14.60
2018-04-11T22:59:48.668Z,14.50
2018-04-11T23:02:16.967Z,14.40
2018-04-11T23:04:44.485Z,14.40
2018-04-11T23:07:12.037Z,14.30
2018-04-11T23:09:39.640Z,14.30
2018-04-11T23:12:07.225Z,14.20
2018-04-11T23:14:34.765Z,14.10
2018-04-11T23:17:02.259Z,14.10
2018-04-11T23:19:29.930Z,14.00
2018-04-11T23:21:57.448Z,14.00
2018-04-11T23:24:25.763Z,13.80
2018-04-11T23:26:53.254Z,13.80
2018-04-11T23:29:20.745Z,13.90
2018-04-11T23:31:49.016Z,13.70
2018-04-11T23:34:17.263Z,13.60
2018-04-11T23:36:44.803Z,13.60
2018-04-11T23:39:12.366Z,13.60
2018-04-11T23:41:39.854Z,13.60
2018-04-11T23:44:07.401Z,13.60
2018-04-11T23:46:34.925Z,13.50
2018-04-11T23:49:02.425Z,13.30
2018-04-11T23:51:29.985Z,13.40
2018-04-11T23:53:58.260Z,13.20
2018-04-11T23:56:25.795Z,13.20
2018-04-11T23:58:53.322Z,13.10
